sensor_id;sensor_type;location;lat;lon;timestamp;pressure;altitude;pressure_sealevel;temperature;humidity
59951;BME280;45812;53.540;9.774;2023-09-12T00:01:03;101219.78;;;22.21;95.16
59951;BME280;45812;53.540;9.774;2023-09-12T00:03:30;101229.09;;;22.14;95.72
59951;BME280;45812;53.540;9.774;2023-09-12T00:05:57;101231.84;;;22.07;96.02
59951;BME280;45812;53.540;9.774;2023-09-12T00:08:23;101240.28;;;21.99;96.53
59951;BME280;45812;53.540;9.774;2023-09-12T00:11:05;101240.56;;;21.91;97.05
59951;BME280;45812;53.540;9.774;2023-09-12T00:13:32;101245.84;;;21.86;97.50
59951;BME280;45812;53.540;9.774;2023-09-12T00:15:57;101246.75;;;21.80;97.67
59951;BME280;45812;53.540;9.774;2023-09-12T00:18:23;101252.00;;;21.74;98.07
59951;BME280;45812;53.540;9.774;2023-09-12T00:20:49;101231.84;;;21.70;98.01
59951;BME280;45812;53.540;9.774;2023-09-12T00:23:15;101236.22;;;21.71;98.38
59951;BME280;45812;53.540;9.774;2023-09-12T00:25:40;101223.25;;;21.73;97.91
59951;BME280;45812;53.540;9.774;2023-09-12T00:28:05;101218.84;;;21.79;97.54
59951;BME280;45812;53.540;9.774;2023-09-12T00:30:31;101223.56;;;21.84;96.93
59951;BME280;45812;53.540;9.774;2023-09-12T00:32:56;101213.31;;;21.86;96.52
59951;BME280;45812;53.540;9.774;2023-09-12T00:35:21;101213.69;;;21.89;96.42
59951;BME280;45812;53.540;9.774;2023-09-12T00:37:46;101214.28;;;21.91;95.80
59951;BME280;45812;53.540;9.774;2023-09-12T00:40:11;101204.50;;;21.90;95.82
59951;BME280;45812;53.540;9.774;2023-09-12T00:42:37;101207.00;;;21.92;95.43
59951;BME280;45812;53.540;9.774;2023-09-12T00:45:02;101207.22;;;21.90;95.38
59951;BME280;45812;53.540;9.774;2023-09-12T00:47:28;101208.03;;;21.91;95.39
59951;BME280;45812;53.540;9.774;2023-09-12T00:49:55;101213.00;;;21.94;95.02
59951;BME280;45812;53.540;9.774;2023-09-12T00:52:23;101197.97;;;21.98;94.89
59951;BME280;45812;53.540;9.774;2023-09-12T00:54:50;101199.16;;;22.02;94.43
59951;BME280;45812;53.540;9.774;2023-09-12T00:57:15;101191.84;;;22.02;94.04
59951;BME280;45812;53.540;9.774;2023-09-12T00:59:40;101194.13;;;22.05;94.16
59951;BME280;45812;53.540;9.774;2023-09-12T01:02:06;101187.41;;;22.08;94.04
59951;BME280;45812;53.540;9.774;2023-09-12T01:04:31;101175.97;;;22.06;93.64
59951;BME280;45812;53.540;9.774;2023-09-12T01:06:57;101183.06;;;22.07;94.03
59951;BME280;45812;53.540;9.774;2023-09-12T01:09:23;101172.44;;;22.05;94.00
59951;BME280;45812;53.540;9.774;2023-09-12T01:11:48;101162.03;;;22.02;93.80
59951;BME280;45812;53.540;9.774;2023-09-12T01:14:13;101157.44;;;22.03;93.74
59951;BME280;45812;53.540;9.774;2023-09-12T01:16:39;101151.19;;;22.02;93.77
59951;BME280;45812;53.540;9.774;2023-09-12T01:19:05;101140.13;;;22.04;93.42
59951;BME280;45812;53.540;9.774;2023-09-12T01:27:41;101120.22;;;22.10;93.35
59951;BME280;45812;53.540;9.774;2023-09-12T01:30:09;101108.72;;;22.15;93.21
59951;BME280;45812;53.540;9.774;2023-09-12T01:32:35;101103.28;;;22.15;92.97
59951;BME280;45812;53.540;9.774;2023-09-12T01:35:01;101098.94;;;22.14;93.17
59951;BME280;45812;53.540;9.774;2023-09-12T01:37:32;101096.22;;;22.14;93.46
59951;BME280;45812;53.540;9.774;2023-09-12T01:39:58;101114.38;;;22.13;93.40
59951;BME280;45812;53.540;9.774;2023-09-12T01:42:24;101132.28;;;22.14;93.89
59951;BME280;45812;53.540;9.774;2023-09-12T01:44:55;101142.31;;;22.14;93.77
59951;BME280;45812;53.540;9.774;2023-09-12T01:47:22;101140.03;;;22.11;94.07
59951;BME280;45812;53.540;9.774;2023-09-12T01:49:50;101140.56;;;22.01;94.21
59951;BME280;45812;53.540;9.774;2023-09-12T01:52:16;101151.88;;;21.98;94.56
59951;BME280;45812;53.540;9.774;2023-09-12T01:54:42;101169.22;;;21.97;94.80
59951;BME280;45812;53.540;9.774;2023-09-12T01:57:08;101178.81;;;21.93;94.42
59951;BME280;45812;53.540;9.774;2023-09-12T01:59:34;101162.66;;;21.86;95.44
59951;BME280;45812;53.540;9.774;2023-09-12T02:01:59;101200.84;;;21.85;95.82
59951;BME280;45812;53.540;9.774;2023-09-12T02:04:24;101194.81;;;21.83;95.43
59951;BME280;45812;53.540;9.774;2023-09-12T02:06:50;101178.66;;;21.76;96.39
59951;BME280;45812;53.540;9.774;2023-09-12T02:09:15;101178.66;;;21.76;96.67
59951;BME280;45812;53.540;9.774;2023-09-12T02:11:40;101188.44;;;21.77;96.79
59951;BME280;45812;53.540;9.774;2023-09-12T02:14:06;101196.09;;;21.80;96.35
59951;BME280;45812;53.540;9.774;2023-09-12T02:16:31;101198.81;;;21.80;96.45
59951;BME280;45812;53.540;9.774;2023-09-12T02:18:56;101197.63;;;21.76;96.64
59951;BME280;45812;53.540;9.774;2023-09-12T02:21:22;101192.03;;;21.71;97.11
59951;BME280;45812;53.540;9.774;2023-09-12T02:23:47;101189.78;;;21.68;97.27
59951;BME280;45812;53.540;9.774;2023-09-12T02:26:12;101194.47;;;21.61;97.67
59951;BME280;45812;53.540;9.774;2023-09-12T02:28:37;101200.53;;;21.56;98.47
59951;BME280;45812;53.540;9.774;2023-09-12T02:31:03;101196.47;;;21.47;99.05
59951;BME280;45812;53.540;9.774;2023-09-12T02:33:28;101208.59;;;21.44;99.49
59951;BME280;45812;53.540;9.774;2023-09-12T02:35:53;101203.41;;;21.43;99.26
59951;BME280;45812;53.540;9.774;2023-09-12T02:38:19;101208.22;;;21.41;99.51
59951;BME280;45812;53.540;9.774;2023-09-12T02:40:44;101218.00;;;21.42;99.54
59951;BME280;45812;53.540;9.774;2023-09-12T02:43:09;101235.13;;;21.36;99.73
59951;BME280;45812;53.540;9.774;2023-09-12T02:45:34;101236.25;;;21.28;100.00
59951;BME280;45812;53.540;9.774;2023-09-12T02:48:00;101232.75;;;21.21;100.00
59951;BME280;45812;53.540;9.774;2023-09-12T02:50:25;101226.09;;;21.17;100.00
59951;BME280;45812;53.540;9.774;2023-09-12T02:52:51;101222.19;;;21.13;100.00
59951;BME280;45812;53.540;9.774;2023-09-12T02:55:16;101218.06;;;21.10;100.00
59951;BME280;45812;53.540;9.774;2023-09-12T02:57:41;101220.38;;;21.07;100.00
59951;BME280;45812;53.540;9.774;2023-09-12T03:00:07;101232.25;;;21.06;100.00
59951;BME280;45812;53.540;9.774;2023-09-12T03:02:34;101235.19;;;21.04;100.00
59951;BME280;45812;53.540;9.774;2023-09-12T03:04:59;101229.56;;;21.06;100.00
59951;BME280;45812;53.540;9.774;2023-09-12T03:07:26;101233.91;;;21.07;100.00
59951;BME280;45812;53.540;9.774;2023-09-12T03:09:51;101238.06;;;21.09;100.00
59951;BME280;45812;53.540;9.774;2023-09-12T03:12:17;101237.22;;;21.09;100.00
59951;BME280;45812;53.540;9.774;2023-09-12T03:14:42;101232.63;;;21.09;100.00
59951;BME280;45812;53.540;9.774;2023-09-12T03:17:07;101223.69;;;21.09;100.00
59951;BME280;45812;53.540;9.774;2023-09-12T03:19:33;101203.09;;;21.08;100.00
59951;BME280;45812;53.540;9.774;2023-09-12T03:21:58;101205.19;;;21.06;100.00
59951;BME280;45812;53.540;9.774;2023-09-12T03:24:23;101212.47;;;21.05;100.00
59951;BME280;45812;53.540;9.774;2023-09-12T03:26:50;101216.63;;;21.08;100.00
59951;BME280;45812;53.540;9.774;2023-09-12T03:29:16;101224.75;;;21.08;100.00
59951;BME280;45812;53.540;9.774;2023-09-12T03:31:41;101213.53;;;21.04;100.00
59951;BME280;45812;53.540;9.774;2023-09-12T03:34:06;101200.22;;;21.03;100.00
59951;BME280;45812;53.540;9.774;2023-09-12T03:36:32;101206.47;;;21.03;100.00
59951;BME280;45812;53.540;9.774;2023-09-12T03:38:57;101196.47;;;21.04;100.00
59951;BME280;45812;53.540;9.774;2023-09-12T03:41:22;101199.41;;;21.02;100.00
59951;BME280;45812;53.540;9.774;2023-09-12T03:43:50;101197.34;;;20.98;100.00
59951;BME280;45812;53.540;9.774;2023-09-12T03:46:16;101195.97;;;20.89;100.00
59951;BME280;45812;53.540;9.774;2023-09-12T03:48:41;101177.50;;;20.79;100.00
59951;BME280;45812;53.540;9.774;2023-09-12T03:51:06;101207.69;;;20.82;100.00
59951;BME280;45812;53.540;9.774;2023-09-12T03:53:31;101210.81;;;20.79;100.00
59951;BME280;45812;53.540;9.774;2023-09-12T03:55:58;101198.38;;;20.72;100.00
59951;BME280;45812;53.540;9.774;2023-09-12T03:58:23;101192.22;;;20.65;100.00
59951;BME280;45812;53.540;9.774;2023-09-12T04:00:49;101187.22;;;20.62;100.00
59951;BME280;45812;53.540;9.774;2023-09-12T04:03:14;101197.19;;;20.61;100.00
59951;BME280;45812;53.540;9.774;2023-09-12T04:05:41;101188.03;;;20.62;100.00
59951;BME280;45812;53.540;9.774;2023-09-12T04:08:06;101187.22;;;20.62;100.00
59951;BME280;45812;53.540;9.774;2023-09-12T04:10:31;101192.63;;;20.62;100.00
59951;BME280;45812;53.540;9.774;2023-09-12T04:12:57;101190.97;;;20.61;100.00
59951;BME280;45812;53.540;9.774;2023-09-12T04:15:23;101197.66;;;20.58;100.00
59951;BME280;45812;53.540;9.774;2023-09-12T04:17:48;101197.88;;;20.56;100.00
59951;BME280;45812;53.540;9.774;2023-09-12T04:20:13;101195.38;;;20.55;100.00
59951;BME280;45812;53.540;9.774;2023-09-12T04:22:39;101204.56;;;20.54;100.00
59951;BME280;45812;53.540;9.774;2023-09-12T04:25:05;101197.69;;;20.51;100.00
59951;BME280;45812;53.540;9.774;2023-09-12T04:27:31;101202.28;;;20.51;100.00
59951;BME280;45812;53.540;9.774;2023-09-12T04:29:56;101198.97;;;20.49;100.00
59951;BME280;45812;53.540;9.774;2023-09-12T04:32:21;101183.19;;;20.46;100.00
59951;BME280;45812;53.540;9.774;2023-09-12T04:34:51;101194.41;;;20.49;100.00
59951;BME280;45812;53.540;9.774;2023-09-12T04:37:17;101185.91;;;20.46;100.00
59951;BME280;45812;53.540;9.774;2023-09-12T04:39:42;101191.09;;;20.47;100.00
59951;BME280;45812;53.540;9.774;2023-09-12T04:42:07;101182.56;;;20.44;100.00
59951;BME280;45812;53.540;9.774;2023-09-12T04:44:38;101180.06;;;20.42;100.00
59951;BME280;45812;53.540;9.774;2023-09-12T04:47:04;101164.25;;;20.39;100.00
59951;BME280;45812;53.540;9.774;2023-09-12T04:49:29;101166.97;;;20.39;100.00
59951;BME280;45812;53.540;9.774;2023-09-12T04:51:55;101164.91;;;20.41;100.00
59951;BME280;45812;53.540;9.774;2023-09-12T04:54:20;101171.97;;;20.42;100.00
59951;BME280;45812;53.540;9.774;2023-09-12T04:56:45;101170.91;;;20.43;100.00
59951;BME280;45812;53.540;9.774;2023-09-12T04:59:10;101164.03;;;20.47;100.00
59951;BME280;45812;53.540;9.774;2023-09-12T05:01:36;101175.47;;;20.49;100.00
59951;BME280;45812;53.540;9.774;2023-09-12T05:04:01;101187.09;;;20.50;100.00
59951;BME280;45812;53.540;9.774;2023-09-12T05:06:28;101201.69;;;20.49;100.00
59951;BME280;45812;53.540;9.774;2023-09-12T05:08:53;101198.38;;;20.47;100.00
59951;BME280;45812;53.540;9.774;2023-09-12T05:11:18;101196.91;;;20.44;100.00
59951;BME280;45812;53.540;9.774;2023-09-12T05:13:43;101184.44;;;20.43;100.00
59951;BME280;45812;53.540;9.774;2023-09-12T05:16:09;101183.59;;;20.43;100.00
59951;BME280;45812;53.540;9.774;2023-09-12T05:18:34;101188.19;;;20.42;100.00
59951;BME280;45812;53.540;9.774;2023-09-12T05:20:59;101202.53;;;20.43;100.00
59951;BME280;45812;53.540;9.774;2023-09-12T05:23:24;101177.78;;;20.39;100.00
59951;BME280;45812;53.540;9.774;2023-09-12T05:25:49;101183.19;;;20.39;100.00
59951;BME280;45812;53.540;9.774;2023-09-12T05:28:15;101186.09;;;20.38;100.00
59951;BME280;45812;53.540;9.774;2023-09-12T05:30:42;101195.50;;;20.35;100.00
59951;BME280;45812;53.540;9.774;2023-09-12T05:33:07;101192.41;;;20.32;100.00
59951;BME280;45812;53.540;9.774;2023-09-12T05:35:33;101198.03;;;20.30;100.00
59951;BME280;45812;53.540;9.774;2023-09-12T05:37:58;101205.09;;;20.31;100.00
59951;BME280;45812;53.540;9.774;2023-09-12T05:40:23;101230.03;;;20.33;100.00
59951;BME280;45812;53.540;9.774;2023-09-12T05:42:49;101237.31;;;20.33;100.00
59951;BME280;45812;53.540;9.774;2023-09-12T05:45:14;101218.59;;;20.31;100.00
59951;BME280;45812;53.540;9.774;2023-09-12T05:47:39;101224.63;;;20.33;100.00
59951;BME280;45812;53.540;9.774;2023-09-12T05:50:05;101227.94;;;20.35;100.00
59951;BME280;45812;53.540;9.774;2023-09-12T05:52:32;101230.19;;;20.38;100.00
59951;BME280;45812;53.540;9.774;2023-09-12T05:54:57;101238.50;;;20.43;100.00
59951;BME280;45812;53.540;9.774;2023-09-12T05:57:22;101227.28;;;20.46;100.00
59951;BME280;45812;53.540;9.774;2023-09-12T05:59:49;101228.06;;;20.53;100.00
59951;BME280;45812;53.540;9.774;2023-09-12T06:02:14;101227.19;;;20.60;100.00
59951;BME280;45812;53.540;9.774;2023-09-12T06:04:39;101221.75;;;20.66;100.00
59951;BME280;45812;53.540;9.774;2023-09-12T06:07:04;101212.13;;;20.70;100.00
59951;BME280;45812;53.540;9.774;2023-09-12T06:09:30;101201.25;;;20.77;100.00
59951;BME280;45812;53.540;9.774;2023-09-12T06:11:55;101209.97;;;20.79;100.00
59951;BME280;45812;53.540;9.774;2023-09-12T06:14:21;101214.34;;;20.80;100.00
59951;BME280;45812;53.540;9.774;2023-09-12T06:16:46;101219.97;;;20.78;100.00
59951;BME280;45812;53.540;9.774;2023-09-12T06:19:12;101227.94;;;20.73;100.00
59951;BME280;45812;53.540;9.774;2023-09-12T06:21:37;101220.03;;;20.72;100.00
59951;BME280;45812;53.540;9.774;2023-09-12T06:24:16;101224.63;;;20.71;100.00
59951;BME280;45812;53.540;9.774;2023-09-12T06:26:42;101229.19;;;20.71;100.00
59951;BME280;45812;53.540;9.774;2023-09-12T06:29:07;101230.25;;;20.70;100.00
59951;BME280;45812;53.540;9.774;2023-09-12T06:31:33;101236.72;;;20.69;100.00
59951;BME280;45812;53.540;9.774;2023-09-12T06:33:58;101236.72;;;20.69;100.00
59951;BME280;45812;53.540;9.774;2023-09-12T06:36:27;101240.84;;;20.71;100.00
59951;BME280;45812;53.540;9.774;2023-09-12T06:41:19;101242.22;;;20.80;100.00
59951;BME280;45812;53.540;9.774;2023-09-12T06:43:44;101245.94;;;20.86;100.00
59951;BME280;45812;53.540;9.774;2023-09-12T06:46:10;101249.44;;;20.93;100.00
59951;BME280;45812;53.540;9.774;2023-09-12T06:48:35;101241.06;;;21.01;100.00
59951;BME280;45812;53.540;9.774;2023-09-12T06:51:04;101240.16;;;21.07;100.00
59951;BME280;45812;53.540;9.774;2023-09-12T06:53:29;101235.94;;;21.11;100.00
59951;BME280;45812;53.540;9.774;2023-09-12T06:55:55;101244.81;;;21.18;100.00
59951;BME280;45812;53.540;9.774;2023-09-12T06:58:22;101246.72;;;21.18;100.00
59951;BME280;45812;53.540;9.774;2023-09-12T07:00:47;101246.06;;;21.23;100.00
59951;BME280;45812;53.540;9.774;2023-09-12T07:03:12;101240.47;;;21.24;100.00
59951;BME280;45812;53.540;9.774;2023-09-12T07:05:38;101231.81;;;21.34;100.00
59951;BME280;45812;53.540;9.774;2023-09-12T07:08:04;101243.19;;;21.42;100.00
59951;BME280;45812;53.540;9.774;2023-09-12T07:10:29;101242.66;;;21.52;100.00
59951;BME280;45812;53.540;9.774;2023-09-12T07:12:54;101245.56;;;21.57;100.00
59951;BME280;45812;53.540;9.774;2023-09-12T07:15:20;101242.16;;;21.62;100.00
59951;BME280;45812;53.540;9.774;2023-09-12T07:17:45;101239.84;;;21.65;100.00
59951;BME280;45812;53.540;9.774;2023-09-12T07:20:11;101250.81;;;21.70;100.00
59951;BME280;45812;53.540;9.774;2023-09-12T07:22:36;101257.00;;;21.77;100.00
59951;BME280;45812;53.540;9.774;2023-09-12T07:25:01;101248.44;;;21.81;100.00
59951;BME280;45812;53.540;9.774;2023-09-12T07:27:28;101247.28;;;21.88;100.00
59951;BME280;45812;53.540;9.774;2023-09-12T07:29:53;101237.19;;;21.95;100.00
59951;BME280;45812;53.540;9.774;2023-09-12T07:32:18;101236.69;;;22.05;100.00
59951;BME280;45812;53.540;9.774;2023-09-12T07:34:44;101239.69;;;22.15;100.00
59951;BME280;45812;53.540;9.774;2023-09-12T07:37:13;101229.25;;;22.30;100.00
59951;BME280;45812;53.540;9.774;2023-09-12T07:39:38;101222.81;;;22.43;100.00
59951;BME280;45812;53.540;9.774;2023-09-12T07:42:04;101225.22;;;22.51;100.00
59951;BME280;45812;53.540;9.774;2023-09-12T07:44:29;101227.34;;;22.61;100.00
59951;BME280;45812;53.540;9.774;2023-09-12T07:46:54;101221.81;;;22.67;100.00
59951;BME280;45812;53.540;9.774;2023-09-12T07:49:20;101230.47;;;22.76;100.00
59951;BME280;45812;53.540;9.774;2023-09-12T07:51:45;101233.91;;;22.83;100.00
59951;BME280;45812;53.540;9.774;2023-09-12T07:54:10;101230.06;;;22.91;99.78
59951;BME280;45812;53.540;9.774;2023-09-12T07:56:35;101235.13;;;22.99;98.57
59951;BME280;45812;53.540;9.774;2023-09-12T07:59:01;101238.19;;;23.03;97.44
59951;BME280;45812;53.540;9.774;2023-09-12T08:01:26;101237.28;;;23.09;97.74
59951;BME280;45812;53.540;9.774;2023-09-12T08:03:52;101245.19;;;23.22;97.45
59951;BME280;45812;53.540;9.774;2023-09-12T08:06:17;101258.19;;;23.32;95.76
59951;BME280;45812;53.540;9.774;2023-09-12T08:08:43;101265.63;;;23.36;94.35
59951;BME280;45812;53.540;9.774;2023-09-12T08:11:08;101262.44;;;23.27;93.79
59951;BME280;45812;53.540;9.774;2023-09-12T08:13:33;101272.09;;;23.23;94.59
59951;BME280;45812;53.540;9.774;2023-09-12T08:15:58;101286.53;;;23.24;94.90
59951;BME280;45812;53.540;9.774;2023-09-12T08:18:29;101285.56;;;23.18;95.46
59951;BME280;45812;53.540;9.774;2023-09-12T08:20:55;101288.06;;;23.20;95.00
59951;BME280;45812;53.540;9.774;2023-09-12T08:23:20;101275.56;;;23.31;95.43
59951;BME280;45812;53.540;9.774;2023-09-12T08:25:45;101272.50;;;23.50;93.96
59951;BME280;45812;53.540;9.774;2023-09-12T08:28:10;101272.72;;;23.72;92.91
59951;BME280;45812;53.540;9.774;2023-09-12T08:30:36;101275.06;;;23.92;91.84
59951;BME280;45812;53.540;9.774;2023-09-12T08:33:01;101276.31;;;24.13;89.38
59951;BME280;45812;53.540;9.774;2023-09-12T08:35:29;101275.72;;;24.23;88.62
59951;BME280;45812;53.540;9.774;2023-09-12T08:37:54;101291.78;;;24.24;88.77
59951;BME280;45812;53.540;9.774;2023-09-12T08:40:20;101284.22;;;24.14;88.61
59951;BME280;45812;53.540;9.774;2023-09-12T08:42:45;101284.47;;;24.13;87.95
59951;BME280;45812;53.540;9.774;2023-09-12T08:45:16;101290.41;;;23.98;88.51
59951;BME280;45812;53.540;9.774;2023-09-12T08:47:44;101292.94;;;23.76;89.73
59951;BME280;45812;53.540;9.774;2023-09-12T08:50:10;101308.53;;;23.58;91.05
59951;BME280;45812;53.540;9.774;2023-09-12T08:52:37;101302.63;;;23.49;92.61
59951;BME280;45812;53.540;9.774;2023-09-12T08:55:02;101300.47;;;23.39;93.27
59951;BME280;45812;53.540;9.774;2023-09-12T08:57:30;101289.97;;;23.43;92.70
59951;BME280;45812;53.540;9.774;2023-09-12T08:59:59;101296.47;;;23.53;91.34
59951;BME280;45812;53.540;9.774;2023-09-12T09:02:27;101293.56;;;23.67;90.32
59951;BME280;45812;53.540;9.774;2023-09-12T09:04:54;101296.00;;;23.80;88.36
59951;BME280;45812;53.540;9.774;2023-09-12T09:07:21;101282.88;;;24.00;87.87
59951;BME280;45812;53.540;9.774;2023-09-12T09:09:47;101298.53;;;24.33;86.51
59951;BME280;45812;53.540;9.774;2023-09-12T09:12:13;101292.50;;;24.60;84.24
59951;BME280;45812;53.540;9.774;2023-09-12T09:14:38;101295.03;;;24.78;82.14
59951;BME280;45812;53.540;9.774;2023-09-12T09:17:03;101295.75;;;25.02;80.04
59951;BME280;45812;53.540;9.774;2023-09-12T09:19:42;101294.44;;;25.21;80.18
59951;BME280;45812;53.540;9.774;2023-09-12T09:22:07;101294.84;;;25.30;79.39
59951;BME280;45812;53.540;9.774;2023-09-12T09:24:33;101287.00;;;25.33;79.62
59951;BME280;45812;53.540;9.774;2023-09-12T09:26:58;101289.41;;;25.30;78.86
59951;BME280;45812;53.540;9.774;2023-09-12T09:29:27;101298.88;;;25.27;80.04
59951;BME280;45812;53.540;9.774;2023-09-12T09:32:01;101302.59;;;25.21;80.11
59951;BME280;45812;53.540;9.774;2023-09-12T09:34:30;101303.03;;;25.13;78.55
59951;BME280;45812;53.540;9.774;2023-09-12T09:36:57;101294.59;;;25.15;79.70
59951;BME280;45812;53.540;9.774;2023-09-12T09:39:27;101288.72;;;25.23;80.66
59951;BME280;45812;53.540;9.774;2023-09-12T09:41:56;101300.53;;;25.28;79.24
59951;BME280;45812;53.540;9.774;2023-09-12T09:44:22;101298.31;;;25.25;78.60
59951;BME280;45812;53.540;9.774;2023-09-12T09:47:00;101297.16;;;25.21;78.39
59951;BME280;45812;53.540;9.774;2023-09-12T09:49:27;101310.03;;;25.09;79.10
59951;BME280;45812;53.540;9.774;2023-09-12T09:51:54;101306.88;;;25.00;79.71
59951;BME280;45812;53.540;9.774;2023-09-12T09:54:24;101320.84;;;25.04;80.81
59951;BME280;45812;53.540;9.774;2023-09-12T09:56:53;101335.41;;;24.98;80.70
59951;BME280;45812;53.540;9.774;2023-09-12T09:59:21;101333.97;;;24.79;81.31
59951;BME280;45812;53.540;9.774;2023-09-12T10:01:49;101334.09;;;24.55;82.78
59951;BME280;45812;53.540;9.774;2023-09-12T10:04:15;101321.00;;;24.29;84.61
59951;BME280;45812;53.540;9.774;2023-09-12T10:06:43;101325.84;;;24.15;85.98
59951;BME280;45812;53.540;9.774;2023-09-12T10:09:10;101327.41;;;24.11;86.32
59951;BME280;45812;53.540;9.774;2023-09-12T10:11:38;101330.28;;;24.04;87.30
59951;BME280;45812;53.540;9.774;2023-09-12T10:14:04;101334.06;;;24.03;86.51
59951;BME280;45812;53.540;9.774;2023-09-12T10:16:34;101345.16;;;24.13;85.30
59951;BME280;45812;53.540;9.774;2023-09-12T10:19:19;101352.59;;;24.18;84.59
59951;BME280;45812;53.540;9.774;2023-09-12T10:21:50;101340.66;;;24.19;83.81
59951;BME280;45812;53.540;9.774;2023-09-12T10:24:18;101336.41;;;24.11;82.22
59951;BME280;45812;53.540;9.774;2023-09-12T10:26:48;101332.75;;;23.94;83.84
59951;BME280;45812;53.540;9.774;2023-09-12T10:29:15;101336.19;;;23.90;85.75
59951;BME280;45812;53.540;9.774;2023-09-12T10:31:41;101336.34;;;23.83;84.85
59951;BME280;45812;53.540;9.774;2023-09-12T10:34:07;101335.25;;;23.72;86.80
59951;BME280;45812;53.540;9.774;2023-09-12T10:36:36;101342.00;;;23.70;87.79
59951;BME280;45812;53.540;9.774;2023-09-12T10:39:04;101346.50;;;23.64;88.01
59951;BME280;45812;53.540;9.774;2023-09-12T10:41:30;101340.09;;;23.59;89.17
59951;BME280;45812;53.540;9.774;2023-09-12T10:43:57;101342.81;;;23.59;89.55
59951;BME280;45812;53.540;9.774;2023-09-12T10:46:22;101339.13;;;23.53;89.99
59951;BME280;45812;53.540;9.774;2023-09-12T10:48:48;101328.16;;;23.60;90.76
59951;BME280;45812;53.540;9.774;2023-09-12T10:51:15;101322.84;;;23.76;87.79
59951;BME280;45812;53.540;9.774;2023-09-12T10:53:45;101324.50;;;23.89;85.95
59951;BME280;45812;53.540;9.774;2023-09-12T10:56:15;101327.56;;;24.04;85.82
59951;BME280;45812;53.540;9.774;2023-09-12T11:01:39;101330.34;;;24.21;84.41
59951;BME280;45812;53.540;9.774;2023-09-12T11:06:50;101318.09;;;23.95;84.43
59951;BME280;45812;53.540;9.774;2023-09-12T11:11:42;101316.22;;;23.84;85.45
59951;BME280;45812;53.540;9.774;2023-09-12T11:14:08;101316.22;;;23.84;86.42
59951;BME280;45812;53.540;9.774;2023-09-12T11:16:34;101305.94;;;23.86;86.88
59951;BME280;45812;53.540;9.774;2023-09-12T11:19:20;101316.00;;;23.74;85.00
59951;BME280;45812;53.540;9.774;2023-09-12T11:21:53;101305.22;;;23.55;85.89
59951;BME280;45812;53.540;9.774;2023-09-12T11:24:19;101312.06;;;23.35;87.36
59951;BME280;45812;53.540;9.774;2023-09-12T11:26:59;101308.88;;;23.26;89.00
59951;BME280;45812;53.540;9.774;2023-09-12T11:29:36;101310.25;;;23.17;90.59
59951;BME280;45812;53.540;9.774;2023-09-12T11:32:02;101315.44;;;23.07;91.20
59951;BME280;45812;53.540;9.774;2023-09-12T11:34:29;101318.34;;;22.93;92.26
59951;BME280;45812;53.540;9.774;2023-09-12T11:36:56;101314.13;;;22.79;93.46
59951;BME280;45812;53.540;9.774;2023-09-12T11:39:29;101310.66;;;22.60;94.98
59951;BME280;45812;53.540;9.774;2023-09-12T11:41:55;101312.03;;;22.51;95.82
59951;BME280;45812;53.540;9.774;2023-09-12T11:44:21;101310.38;;;22.50;96.92
59951;BME280;45812;53.540;9.774;2023-09-12T11:46:47;101309.53;;;22.50;98.03
59951;BME280;45812;53.540;9.774;2023-09-12T11:49:14;101313.84;;;22.39;98.93
59951;BME280;45812;53.540;9.774;2023-09-12T11:51:54;101302.19;;;22.20;100.00
59951;BME280;45812;53.540;9.774;2023-09-12T11:54:24;101315.91;;;22.07;100.00
59951;BME280;45812;53.540;9.774;2023-09-12T11:56:50;101310.69;;;21.87;100.00
59951;BME280;45812;53.540;9.774;2023-09-12T11:59:21;101323.28;;;21.75;100.00
59951;BME280;45812;53.540;9.774;2023-09-12T12:01:47;101311.41;;;21.58;100.00
59951;BME280;45812;53.540;9.774;2023-09-12T12:04:12;101307.09;;;21.50;100.00
59951;BME280;45812;53.540;9.774;2023-09-12T12:06:38;101306.47;;;21.48;100.00
59951;BME280;45812;53.540;9.774;2023-09-12T12:09:03;101303.91;;;21.53;100.00
59951;BME280;45812;53.540;9.774;2023-09-12T12:11:30;101297.34;;;21.67;100.00
59951;BME280;45812;53.540;9.774;2023-09-12T12:13:55;101296.75;;;21.84;100.00
59951;BME280;45812;53.540;9.774;2023-09-12T12:16:20;101291.69;;;21.87;100.00
59951;BME280;45812;53.540;9.774;2023-09-12T12:18:46;101296.28;;;21.87;100.00
59951;BME280;45812;53.540;9.774;2023-09-12T12:21:11;101283.47;;;21.94;100.00
59951;BME280;45812;53.540;9.774;2023-09-12T12:23:36;101277.19;;;22.00;100.00
59951;BME280;45812;53.540;9.774;2023-09-12T12:26:08;101272.53;;;22.07;100.00
59951;BME280;45812;53.540;9.774;2023-09-12T12:28:38;101271.78;;;22.18;100.00
59951;BME280;45812;53.540;9.774;2023-09-12T12:31:03;101273.69;;;22.29;100.00
59951;BME280;45812;53.540;9.774;2023-09-12T12:33:29;101267.97;;;22.38;100.00
59951;BME280;45812;53.540;9.774;2023-09-12T12:36:04;101265.75;;;22.46;100.00
59951;BME280;45812;53.540;9.774;2023-09-12T12:38:34;101264.75;;;22.59;100.00
59951;BME280;45812;53.540;9.774;2023-09-12T12:41:00;101265.25;;;22.67;99.65
59951;BME280;45812;53.540;9.774;2023-09-12T12:43:25;101267.31;;;22.84;100.00
59951;BME280;45812;53.540;9.774;2023-09-12T12:45:53;101264.28;;;23.04;98.67
59951;BME280;45812;53.540;9.774;2023-09-12T12:48:29;101262.44;;;23.27;97.97
59951;BME280;45812;53.540;9.774;2023-09-12T12:50:55;101268.00;;;23.56;95.52
59951;BME280;45812;53.540;9.774;2023-09-12T12:53:39;101261.56;;;23.97;92.11
59951;BME280;45812;53.540;9.774;2023-09-12T12:56:05;101260.13;;;24.46;90.84
59951;BME280;45812;53.540;9.774;2023-09-12T12:58:30;101260.91;;;25.04;87.12